ESGJ/JKG METAR and TAF weather

Enter ICAO airport designator
Station Type Date Time Source
ESGJ METAR 2018/12/12 16:50 UTC NOAA

ESGJ 121650Z 05007KT 9999 -SN BKN011 M01/M03 Q1030


Station Type Date Time Source
ESGJ Decoded METAR 2018/12/12 16:50 UTC NOAA

Jonkoping Flygplats, Sweden (ESGJ) 57-46N 014-05E 232M
Dec 12, 2018 - 11:50 AM EST / 2018.12.12 1650 UTC
Wind: from the NE (050 degrees) at 8 MPH (7 KT):0
Visibility: greater than 7 mile(s):0
Sky conditions: mostly cloudy
Weather: light snow
Temperature: 30 F (-1 C)
Windchill: 23 F (-5 C):1
Dew Point: 26 F (-3 C)
Relative Humidity: 86%
Pressure (altimeter): 30.42 in. Hg (1030 hPa)
ob: ESGJ 121650Z 05007KT 9999 -SN BKN011 M01/M03 Q1030
cycle: 17

Station Type Date Time Source
ESGJ TAF 2015/05/01 23:06 UTC NOAA

TAF TAF ESGJ 302359Z 3023/0101 CNL


Example: see airport list